Terminal Aerodrome Forecast
Issued by NWS Sterling, VA

Home | Current Version | Previous Version | Text Only | Print | Product List | Glossary On
Versions: 1 2 3 4 5 6 7 8 9 10 11 12 13 14 15 16 17 18 19 20 21 22 23 24 25 26 27 28
000
FTUS41 KLWX 012334
TAFDCA
TAF
KDCA 012334Z 0200/0224 31008KT P6SM FEW070 SCT100
     FM020200 32004KT P6SM SCT070
     FM020800 VRB03KT P6SM FEW250
     FM021500 27006KT P6SM FEW060=

USA.gov is the U.S. government's official web portal to all federal, state and local government web resources and services.